createdAt,value
2017-05-03T00:00:11.712Z,0
2017-05-03T00:00:52.219Z,0
2017-05-03T00:01:32.822Z,0
2017-05-03T00:02:13.356Z,0
2017-05-03T00:02:53.876Z,0
2017-05-03T00:03:34.395Z,0
2017-05-03T00:04:14.916Z,0
2017-05-03T00:04:55.444Z,0
2017-05-03T00:05:35.969Z,0
2017-05-03T00:06:16.495Z,0
2017-05-03T00:06:57.003Z,0
2017-05-03T00:07:37.522Z,0
2017-05-03T00:08:18.042Z,0
2017-05-03T00:08:58.578Z,0
2017-05-03T00:09:39.098Z,0
2017-05-03T00:10:19.627Z,0
2017-05-03T00:11:00.150Z,0
2017-05-03T00:11:40.670Z,0
2017-05-03T00:12:21.179Z,0
2017-05-03T00:13:01.713Z,0
2017-05-03T00:13:42.226Z,0
2017-05-03T00:14:22.761Z,0
2017-05-03T00:15:03.291Z,0
2017-05-03T00:15:43.810Z,0
2017-05-03T00:16:24.333Z,0
2017-05-03T00:17:04.850Z,0
2017-05-03T00:17:45.379Z,0
2017-05-03T00:18:25.901Z,0
2017-05-03T00:19:06.428Z,0
2017-05-03T00:19:46.961Z,0
2017-05-03T00:20:27.485Z,0
2017-05-03T00:21:08.008Z,0
2017-05-03T00:21:48.528Z,0
2017-05-03T00:22:29.072Z,0
2017-05-03T00:23:09.606Z,0
2017-05-03T00:23:50.129Z,0
2017-05-03T00:24:30.642Z,0
2017-05-03T00:25:11.181Z,0
2017-05-03T00:25:51.715Z,0
2017-05-03T00:26:32.235Z,0
2017-05-03T00:27:12.758Z,0
2017-05-03T00:27:53.275Z,0
2017-05-03T00:28:33.812Z,0
2017-05-03T00:29:14.327Z,0
2017-05-03T00:29:54.845Z,0
2017-05-03T00:30:35.384Z,0
2017-05-03T00:31:15.906Z,0
2017-05-03T00:31:56.435Z,0
2017-05-03T00:32:36.956Z,0
2017-05-03T00:33:17.466Z,0
2017-05-03T00:33:57.983Z,0
2017-05-03T00:34:38.507Z,0
2017-05-03T00:35:19.027Z,0
2017-05-03T00:35:59.539Z,0
2017-05-03T00:36:40.035Z,0
2017-05-03T00:37:20.535Z,0
2017-05-03T00:38:01.041Z,0
2017-05-03T00:38:41.570Z,0
2017-05-03T00:39:22.106Z,0
2017-05-03T00:40:02.612Z,0
2017-05-03T00:40:43.140Z,0
2017-05-03T00:41:23.679Z,0
2017-05-03T00:42:04.160Z,0
2017-05-03T00:42:44.692Z,0
2017-05-03T00:43:25.222Z,0
2017-05-03T00:44:05.733Z,0
2017-05-03T00:44:46.252Z,0
2017-05-03T00:45:26.786Z,0
2017-05-03T00:46:07.311Z,0
2017-05-03T00:46:47.850Z,0
2017-05-03T00:47:28.375Z,0
2017-05-03T00:48:08.903Z,0
2017-05-03T00:48:49.439Z,0
2017-05-03T00:49:29.989Z,0
2017-05-03T00:50:10.514Z,0
2017-05-03T00:50:51.035Z,0
2017-05-03T00:51:31.552Z,0
2017-05-03T00:52:12.081Z,0
2017-05-03T00:52:52.600Z,0
2017-05-03T00:53:33.114Z,0
2017-05-03T00:54:13.625Z,0
2017-05-03T00:54:54.149Z,0
2017-05-03T00:55:34.673Z,0
2017-05-03T00:56:15.200Z,0
2017-05-03T00:56:55.716Z,0
2017-05-03T00:57:36.249Z,0
2017-05-03T00:58:16.784Z,0
2017-05-03T00:58:57.290Z,0
2017-05-03T00:59:37.824Z,0
2017-05-03T01:00:18.325Z,0
2017-05-03T01:00:58.846Z,0
2017-05-03T01:01:39.376Z,0
2017-05-03T01:02:19.897Z,0
2017-05-03T01:03:00.402Z,0
2017-05-03T01:03:40.917Z,0
2017-05-03T01:04:21.431Z,0
2017-05-03T01:05:01.997Z,0
2017-05-03T01:05:42.507Z,0
2017-05-03T01:06:23.043Z,0
2017-05-03T01:07:03.575Z,0
2017-05-03T01:07:44.120Z,0
2017-05-03T01:08:24.652Z,0
2017-05-03T01:09:05.179Z,0
2017-05-03T01:09:45.675Z,0
2017-05-03T01:10:26.200Z,0
2017-05-03T01:11:06.718Z,0
2017-05-03T01:11:47.248Z,0
2017-05-03T01:12:27.773Z,0
2017-05-03T01:13:08.305Z,0
2017-05-03T01:13:48.832Z,0
2017-05-03T01:14:29.355Z,0
2017-05-03T01:15:09.885Z,0
2017-05-03T01:15:50.383Z,0
2017-05-03T01:16:30.901Z,0
2017-05-03T01:17:11.424Z,0
2017-05-03T01:17:51.979Z,0
2017-05-03T01:18:32.458Z,0
2017-05-03T01:19:12.968Z,0
2017-05-03T01:19:53.487Z,0
2017-05-03T01:20:34.021Z,0
2017-05-03T01:21:14.551Z,0
2017-05-03T01:21:55.072Z,0
2017-05-03T01:22:35.576Z,0
2017-05-03T01:23:16.101Z,0
2017-05-03T01:23:56.622Z,0
2017-05-03T01:24:37.144Z,0
2017-05-03T01:25:17.654Z,0
2017-05-03T01:25:58.177Z,0
2017-05-03T01:26:38.694Z,0
2017-05-03T01:27:19.199Z,0
2017-05-03T01:27:59.727Z,0
2017-05-03T01:28:40.245Z,0
2017-05-03T01:29:20.789Z,0
2017-05-03T01:30:01.316Z,0
2017-05-03T01:30:41.847Z,0
2017-05-03T01:31:22.371Z,0
2017-05-03T01:32:02.901Z,0
2017-05-03T01:32:45.912Z,0
2017-05-03T01:33:26.438Z,0
2017-05-03T01:34:06.969Z,0
2017-05-03T01:34:47.489Z,0
2017-05-03T01:35:27.983Z,0
2017-05-03T01:36:08.500Z,0
2017-05-03T01:36:49.018Z,0
2017-05-03T01:37:29.535Z,0
2017-05-03T01:38:10.061Z,0
2017-05-03T01:38:50.577Z,0
2017-05-03T01:39:31.110Z,0
2017-05-03T01:40:11.637Z,0
2017-05-03T01:40:52.166Z,0
2017-05-03T01:41:32.688Z,0
2017-05-03T01:42:13.189Z,0
2017-05-03T01:42:53.710Z,0
2017-05-03T01:43:34.238Z,0
2017-05-03T01:44:14.730Z,0
2017-05-03T01:44:55.256Z,0
2017-05-03T01:45:35.805Z,0
2017-05-03T01:46:16.319Z,0
2017-05-03T01:46:56.867Z,0
2017-05-03T01:47:37.417Z,0
2017-05-03T01:48:17.962Z,0
2017-05-03T01:48:58.545Z,0
2017-05-03T01:49:39.060Z,0
2017-05-03T01:50:19.566Z,0
2017-05-03T01:51:00.095Z,0
2017-05-03T01:51:40.613Z,0
2017-05-03T01:52:21.138Z,0
2017-05-03T01:53:01.668Z,0
2017-05-03T01:53:42.186Z,0
2017-05-03T01:54:22.714Z,0
2017-05-03T01:55:03.249Z,0
2017-05-03T01:55:43.779Z,0
2017-05-03T01:56:24.306Z,0
2017-05-03T01:57:04.840Z,0
2017-05-03T01:57:45.347Z,0
2017-05-03T01:58:25.868Z,0
2017-05-03T01:59:06.405Z,0
2017-05-03T01:59:46.940Z,0
2017-05-03T02:00:27.475Z,0
2017-05-03T02:01:08.016Z,0
2017-05-03T02:01:48.543Z,0
2017-05-03T02:02:29.065Z,0
2017-05-03T02:03:09.599Z,0
2017-05-03T02:03:50.119Z,0
2017-05-03T02:04:30.643Z,0
2017-05-03T02:05:11.178Z,0
2017-05-03T02:05:51.705Z,0
2017-05-03T02:06:32.226Z,0
2017-05-03T02:07:12.772Z,0
2017-05-03T02:07:53.315Z,0
2017-05-03T02:08:33.849Z,0
2017-05-03T02:09:14.403Z,0
2017-05-03T02:09:54.894Z,0
2017-05-03T02:10:35.426Z,0
2017-05-03T02:11:15.957Z,0
2017-05-03T02:11:56.484Z,0
2017-05-03T02:12:36.995Z,0
2017-05-03T02:13:17.513Z,0
2017-05-03T02:13:58.040Z,0
2017-05-03T02:14:38.571Z,0
2017-05-03T02:15:19.096Z,0
2017-05-03T02:15:59.642Z,0
2017-05-03T02:16:40.136Z,0
2017-05-03T02:17:20.668Z,0
2017-05-03T02:18:01.167Z,0
2017-05-03T02:18:41.678Z,0
2017-05-03T02:19:22.194Z,0
2017-05-03T02:20:02.719Z,0
2017-05-03T02:20:43.250Z,0
2017-05-03T02:21:23.784Z,0
2017-05-03T02:22:04.332Z,0
2017-05-03T02:22:44.820Z,0
2017-05-03T02:23:25.349Z,0
2017-05-03T02:24:05.889Z,0
2017-05-03T02:24:46.422Z,0
2017-05-03T02:25:26.958Z,0
2017-05-03T02:26:07.498Z,0
2017-05-03T02:26:48.025Z,0
2017-05-03T02:27:28.551Z,0
2017-05-03T02:28:09.073Z,0
2017-05-03T02:28:49.602Z,0
2017-05-03T02:29:30.131Z,0
2017-05-03T02:30:10.670Z,0
2017-05-03T02:30:51.187Z,0
2017-05-03T02:31:31.705Z,0
2017-05-03T02:32:12.217Z,0
2017-05-03T02:32:52.739Z,0
2017-05-03T02:33:33.279Z,0
2017-05-03T02:34:13.783Z,0
2017-05-03T02:34:54.314Z,0
2017-05-03T02:35:34.848Z,0
2017-05-03T02:36:15.372Z,0
2017-05-03T02:36:55.888Z,0
2017-05-03T02:37:36.415Z,0
2017-05-03T02:38:16.928Z,0
2017-05-03T02:38:57.471Z,0
2017-05-03T02:39:37.965Z,0
2017-05-03T02:40:18.485Z,0
2017-05-03T02:40:58.990Z,0
2017-05-03T02:41:39.514Z,0
2017-05-03T02:42:20.058Z,0
2017-05-03T02:43:00.565Z,0
2017-05-03T02:43:41.089Z,0
2017-05-03T02:44:21.617Z,0
2017-05-03T02:45:02.142Z,0
2017-05-03T02:45:42.666Z,0
2017-05-03T02:46:23.189Z,0
2017-05-03T02:47:03.703Z,0
2017-05-03T02:47:44.238Z,0
2017-05-03T02:48:24.763Z,0
2017-05-03T02:49:05.281Z,0
2017-05-03T02:49:45.809Z,0
2017-05-03T02:50:26.325Z,0
2017-05-03T02:51:06.852Z,0
2017-05-03T02:51:47.367Z,0
2017-05-03T02:52:27.879Z,0
2017-05-03T02:53:08.389Z,0
2017-05-03T02:53:48.910Z,0
2017-05-03T02:54:29.431Z,0
2017-05-03T02:55:09.945Z,0
2017-05-03T02:55:50.460Z,0
2017-05-03T02:56:30.997Z,0
2017-05-03T02:57:11.537Z,0
2017-05-03T02:57:52.068Z,0
2017-05-03T02:58:32.598Z,0
2017-05-03T02:59:13.099Z,0
2017-05-03T02:59:53.646Z,0
2017-05-03T03:00:34.162Z,0
2017-05-03T03:01:14.778Z,0
2017-05-03T03:01:55.245Z,0
2017-05-03T03:02:35.753Z,0
2017-05-03T03:03:16.272Z,0
2017-05-03T03:03:56.785Z,0
2017-05-03T03:04:37.290Z,0
2017-05-03T03:05:17.810Z,0
2017-05-03T03:05:58.342Z,0
2017-05-03T03:06:38.849Z,0
2017-05-03T03:07:19.367Z,0
2017-05-03T03:07:59.893Z,0
2017-05-03T03:08:40.401Z,0
2017-05-03T03:09:20.918Z,0
2017-05-03T03:10:01.435Z,0
2017-05-03T03:10:41.952Z,0
2017-05-03T03:11:22.467Z,0
2017-05-03T03:12:03.016Z,0
2017-05-03T03:12:43.501Z,0
2017-05-03T03:13:24.024Z,0
2017-05-03T03:14:04.528Z,0
2017-05-03T03:14:45.025Z,0
2017-05-03T03:15:25.518Z,0
2017-05-03T03:16:06.021Z,0
2017-05-03T03:16:46.523Z,0
2017-05-03T03:17:27.026Z,0
2017-05-03T03:18:07.554Z,0
2017-05-03T03:18:48.061Z,0
2017-05-03T03:19:28.587Z,0
2017-05-03T03:20:09.105Z,0
2017-05-03T03:20:49.616Z,0
2017-05-03T03:21:30.075Z,0
2017-05-03T03:22:10.598Z,0
2017-05-03T03:22:51.129Z,0
2017-05-03T03:23:31.621Z,0
2017-05-03T03:24:12.138Z,0
2017-05-03T03:24:52.666Z,0
2017-05-03T03:25:33.177Z,0
2017-05-03T03:26:13.693Z,0
2017-05-03T03:26:54.257Z,0
2017-05-03T03:27:34.745Z,0
2017-05-03T03:28:15.267Z,0
2017-05-03T03:28:55.789Z,0
2017-05-03T03:29:36.318Z,0
2017-05-03T03:30:16.844Z,0
2017-05-03T03:30:57.331Z,0
2017-05-03T03:31:37.860Z,0
2017-05-03T03:32:18.377Z,0
2017-05-03T03:32:58.967Z,4
2017-05-03T03:33:39.475Z,4
2017-05-03T03:34:20.001Z,4
2017-05-03T03:35:00.518Z,4
2017-05-03T03:35:41.076Z,0
2017-05-03T03:36:21.597Z,0
2017-05-03T03:37:02.112Z,0
2017-05-03T03:37:42.647Z,4
2017-05-03T03:38:23.173Z,4
2017-05-03T03:39:03.713Z,4
2017-05-03T03:39:44.221Z,4
2017-05-03T03:40:24.735Z,4
2017-05-03T03:41:05.255Z,4
2017-05-03T03:41:45.786Z,4
2017-05-03T03:42:26.275Z,4
2017-05-03T03:43:06.770Z,4
2017-05-03T03:43:47.292Z,8
2017-05-03T03:44:27.833Z,4
2017-05-03T03:45:08.348Z,8
2017-05-03T03:45:48.856Z,8
2017-05-03T03:46:29.389Z,8
2017-05-03T03:47:09.908Z,8
2017-05-03T03:47:50.412Z,12
2017-05-03T03:48:30.930Z,8
2017-05-03T03:49:11.459Z,12
2017-05-03T03:49:51.962Z,12
2017-05-03T03:50:32.517Z,12
2017-05-03T03:51:13.236Z,12
2017-05-03T03:51:53.700Z,12
2017-05-03T03:52:34.218Z,12
2017-05-03T03:53:14.747Z,12
2017-05-03T03:53:55.257Z,16
2017-05-03T03:54:35.784Z,16
2017-05-03T03:55:16.292Z,20
2017-05-03T03:55:56.813Z,20
2017-05-03T03:56:37.329Z,20
2017-05-03T03:57:17.833Z,24
2017-05-03T03:57:58.375Z,24
2017-05-03T03:58:38.932Z,28
2017-05-03T03:59:19.450Z,28
2017-05-03T03:59:59.986Z,28
2017-05-03T04:00:40.596Z,32
2017-05-03T04:01:21.105Z,32
2017-05-03T04:02:01.646Z,36
2017-05-03T04:02:42.152Z,40
2017-05-03T04:03:22.664Z,40
2017-05-03T04:04:03.181Z,44
2017-05-03T04:04:43.836Z,48
2017-05-03T04:05:24.305Z,48
2017-05-03T04:06:04.807Z,52
2017-05-03T04:06:45.309Z,56
2017-05-03T04:07:25.794Z,60
2017-05-03T04:08:06.336Z,64
2017-05-03T04:08:46.820Z,64
2017-05-03T04:09:27.286Z,64
2017-05-03T04:10:07.814Z,68
2017-05-03T04:10:48.293Z,80
2017-05-03T04:11:28.782Z,84
2017-05-03T04:12:09.309Z,84
2017-05-03T04:12:49.820Z,88
2017-05-03T04:13:30.354Z,92
2017-05-03T04:14:10.846Z,92
2017-05-03T04:14:51.340Z,92
2017-05-03T04:15:31.862Z,96
2017-05-03T04:16:12.393Z,100
2017-05-03T04:16:52.868Z,100
2017-05-03T04:17:33.373Z,104
2017-05-03T04:18:13.925Z,108
2017-05-03T04:18:54.450Z,116
2017-05-03T04:19:34.986Z,124
2017-05-03T04:20:15.519Z,132
2017-05-03T04:20:56.047Z,140
2017-05-03T04:21:36.533Z,148
2017-05-03T04:22:17.068Z,160
2017-05-03T04:22:57.586Z,164
2017-05-03T04:23:38.114Z,172
2017-05-03T04:24:18.625Z,180
2017-05-03T04:24:59.187Z,188
2017-05-03T04:25:39.687Z,200
2017-05-03T04:26:20.204Z,204
2017-05-03T04:27:00.726Z,208
2017-05-03T04:27:41.267Z,212
2017-05-03T04:28:21.818Z,232
2017-05-03T04:29:02.303Z,244
2017-05-03T04:29:42.808Z,264
2017-05-03T04:30:23.303Z,276
2017-05-03T04:31:03.824Z,284
2017-05-03T04:31:44.349Z,292
2017-05-03T04:32:24.862Z,296
2017-05-03T04:33:05.381Z,300
2017-05-03T04:33:45.883Z,304
2017-05-03T04:34:26.387Z,296
2017-05-03T04:35:06.909Z,292
2017-05-03T04:35:47.451Z,296
2017-05-03T04:36:27.937Z,312
2017-05-03T04:37:08.453Z,336
2017-05-03T04:37:48.987Z,352
2017-05-03T04:38:29.517Z,356
2017-05-03T04:39:10.019Z,368
2017-05-03T04:39:50.522Z,376
2017-05-03T04:40:31.029Z,416
2017-05-03T04:41:11.549Z,424
2017-05-03T04:41:52.094Z,416
2017-05-03T04:42:32.571Z,412
2017-05-03T04:43:13.083Z,428
2017-05-03T04:43:53.602Z,444
2017-05-03T04:44:34.101Z,436
2017-05-03T04:45:14.635Z,436
2017-05-03T04:45:55.121Z,444
2017-05-03T04:46:35.639Z,476
2017-05-03T04:47:16.157Z,496
2017-05-03T04:47:56.699Z,496
2017-05-03T04:48:37.230Z,508
2017-05-03T04:49:17.761Z,496
2017-05-03T04:49:58.280Z,504
2017-05-03T04:50:38.804Z,500
2017-05-03T04:51:19.308Z,484
2017-05-03T04:51:59.825Z,484
2017-05-03T04:52:40.353Z,492
2017-05-03T04:53:20.864Z,508
2017-05-03T04:54:01.369Z,544
2017-05-03T04:54:41.886Z,564
2017-05-03T04:55:22.388Z,548
2017-05-03T04:56:02.878Z,544
2017-05-03T04:56:43.371Z,520
2017-05-03T04:57:23.865Z,516
2017-05-03T04:58:04.387Z,508
2017-05-03T04:58:44.901Z,516
2017-05-03T04:59:25.400Z,544
2017-05-03T05:00:05.919Z,544
2017-05-03T05:00:46.442Z,580
2017-05-03T05:01:26.913Z,628
2017-05-03T05:02:07.446Z,668
2017-05-03T05:02:47.973Z,700
2017-05-03T05:03:28.481Z,728
2017-05-03T05:04:09.051Z,724
2017-05-03T05:04:49.534Z,724
2017-05-03T05:05:30.019Z,800
2017-05-03T05:06:10.529Z,868
2017-05-03T05:06:51.058Z,900
2017-05-03T05:07:31.623Z,956
2017-05-03T05:08:12.142Z,1016
2017-05-03T05:08:52.665Z,976
2017-05-03T05:09:33.186Z,920
2017-05-03T05:10:13.692Z,896
2017-05-03T05:10:54.170Z,880
2017-05-03T05:11:34.699Z,876
2017-05-03T05:12:15.209Z,892
2017-05-03T05:12:55.749Z,932
2017-05-03T05:13:36.248Z,916
2017-05-03T05:14:16.821Z,936
2017-05-03T05:14:57.349Z,972
2017-05-03T05:15:37.868Z,1028
2017-05-03T05:16:18.410Z,1052
2017-05-03T05:16:58.926Z,1036
2017-05-03T05:17:39.421Z,1000
2017-05-03T05:18:19.950Z,972
2017-05-03T05:19:00.505Z,960
2017-05-03T05:19:41.033Z,916
2017-05-03T05:20:21.580Z,884
2017-05-03T05:21:02.076Z,880
2017-05-03T05:21:42.658Z,892
2017-05-03T05:22:23.144Z,912
2017-05-03T05:23:03.720Z,944
2017-05-03T05:23:44.230Z,968
2017-05-03T05:24:24.769Z,1028
2017-05-03T05:25:05.297Z,1112
2017-05-03T05:25:45.790Z,1180
2017-05-03T05:26:26.274Z,1276
2017-05-03T05:27:06.774Z,1348
2017-05-03T05:27:47.343Z,1372
2017-05-03T05:28:27.854Z,1388
2017-05-03T05:29:08.413Z,1372
2017-05-03T05:29:48.947Z,1376
2017-05-03T05:30:31.127Z,1388
2017-05-03T05:31:11.622Z,1436
2017-05-03T05:31:52.165Z,1508
2017-05-03T05:32:32.661Z,1624
2017-05-03T05:33:13.170Z,1712
2017-05-03T05:33:53.718Z,1788
2017-05-03T05:34:34.220Z,1868
2017-05-03T05:35:14.752Z,1952
2017-05-03T05:35:55.319Z,2068
2017-05-03T05:36:35.818Z,2152
2017-05-03T05:37:16.373Z,2280
2017-05-03T05:37:56.870Z,2252
2017-05-03T05:38:37.389Z,2148
2017-05-03T05:39:17.910Z,2112
2017-05-03T05:39:58.385Z,2028
2017-05-03T05:40:38.893Z,1992
2017-05-03T05:41:19.395Z,1896
2017-05-03T05:41:59.967Z,1872
2017-05-03T05:42:40.446Z,1792
2017-05-03T05:43:20.996Z,1816
2017-05-03T05:44:01.476Z,1788
2017-05-03T05:44:41.965Z,1652
2017-05-03T05:45:22.462Z,1624
2017-05-03T05:46:02.956Z,1552
2017-05-03T05:46:43.635Z,1588
2017-05-03T05:47:24.477Z,1608
2017-05-03T05:48:04.967Z,1652
2017-05-03T05:48:45.482Z,1752
2017-05-03T05:49:25.993Z,1848
2017-05-03T05:50:06.502Z,1880
2017-05-03T05:50:47.022Z,1912
2017-05-03T05:51:27.551Z,1912
2017-05-03T05:52:08.012Z,1936
2017-05-03T05:52:48.534Z,1976
2017-05-03T05:53:29.088Z,2016
2017-05-03T05:54:09.574Z,2032
2017-05-03T05:54:50.099Z,2064
2017-05-03T05:55:30.553Z,2072
2017-05-03T05:56:11.040Z,2100
2017-05-03T05:56:51.616Z,2116
2017-05-03T05:57:32.139Z,2172
2017-05-03T05:58:12.712Z,2264
2017-05-03T05:58:53.196Z,2412
2017-05-03T05:59:33.708Z,2560
2017-05-03T06:00:14.211Z,2660
2017-05-03T06:00:54.730Z,2824
2017-05-03T06:01:35.227Z,2888
2017-05-03T06:02:15.741Z,2932
2017-05-03T06:02:56.272Z,2924
2017-05-03T06:03:36.842Z,2848
2017-05-03T06:04:17.325Z,2824
2017-05-03T06:04:57.837Z,2796
2017-05-03T06:05:38.371Z,2804
2017-05-03T06:06:18.933Z,2912
2017-05-03T06:06:59.468Z,3032
2017-05-03T06:07:39.978Z,3012
2017-05-03T06:08:20.496Z,2920
2017-05-03T06:09:01.025Z,2880
2017-05-03T06:09:41.531Z,2860
2017-05-03T06:10:22.036Z,2800
2017-05-03T06:11:02.617Z,2836
2017-05-03T06:11:43.134Z,2900
2017-05-03T06:12:23.654Z,2916
2017-05-03T06:13:04.149Z,2876
2017-05-03T06:13:44.677Z,2916
2017-05-03T06:14:25.203Z,2996
2017-05-03T06:15:05.723Z,3004
2017-05-03T06:15:46.270Z,3060
2017-05-03T06:16:26.806Z,2952
2017-05-03T06:17:07.299Z,2944
2017-05-03T06:17:47.791Z,3084
2017-05-03T06:18:28.295Z,3084
2017-05-03T06:19:08.803Z,3128
2017-05-03T06:19:49.321Z,3068
2017-05-03T06:20:29.813Z,3276
2017-05-03T06:21:10.333Z,3196
2017-05-03T06:21:50.857Z,2980
2017-05-03T06:22:31.372Z,2920
2017-05-03T06:23:11.891Z,3036
2017-05-03T06:23:52.420Z,2880
2017-05-03T06:24:32.961Z,2916
2017-05-03T06:25:13.493Z,2972
2017-05-03T06:25:54.002Z,3140
2017-05-03T06:26:34.690Z,3092
2017-05-03T06:27:15.207Z,3112
2017-05-03T06:27:55.709Z,3264
2017-05-03T06:28:36.221Z,3484
2017-05-03T06:29:16.754Z,3600
2017-05-03T06:29:57.297Z,3512
2017-05-03T06:30:37.826Z,3752
2017-05-03T06:31:18.338Z,3632
2017-05-03T06:31:58.855Z,3504
2017-05-03T06:32:39.384Z,3436
2017-05-03T06:33:19.916Z,3352
2017-05-03T06:34:00.428Z,3368
2017-05-03T06:34:40.928Z,3520
2017-05-03T06:35:21.398Z,3612
2017-05-03T06:36:02.308Z,3904
2017-05-03T06:36:43.589Z,4052
2017-05-03T06:37:24.411Z,4384
2017-05-03T06:38:05.298Z,4416
2017-05-03T06:38:45.835Z,4384
2017-05-03T06:39:26.347Z,4092
2017-05-03T06:40:06.875Z,4148
2017-05-03T06:40:47.425Z,4096
2017-05-03T06:41:27.945Z,4208
2017-05-03T06:42:08.456Z,4296
2017-05-03T06:42:48.994Z,4408
2017-05-03T06:43:29.542Z,4404
2017-05-03T06:44:10.053Z,4472
2017-05-03T06:44:50.575Z,4680
2017-05-03T06:45:31.102Z,4816
2017-05-03T06:46:11.641Z,4808
2017-05-03T06:46:52.174Z,4788
2017-05-03T06:47:32.688Z,4728
2017-05-03T06:48:13.209Z,4860
2017-05-03T06:48:53.740Z,4928
2017-05-03T06:49:34.275Z,4700
2017-05-03T06:50:14.810Z,4548
2017-05-03T06:50:55.310Z,4300
2017-05-03T06:51:35.867Z,4060
2017-05-03T06:52:16.370Z,4000
2017-05-03T06:52:56.867Z,4092
2017-05-03T06:53:37.394Z,4208
2017-05-03T06:54:17.920Z,4376
2017-05-03T06:54:58.436Z,4400
2017-05-03T06:55:38.946Z,4492
2017-05-03T06:56:19.472Z,4860
2017-05-03T06:56:59.971Z,4964
2017-05-03T06:57:40.484Z,5132
2017-05-03T06:58:21.033Z,5164
2017-05-03T06:59:01.546Z,5224
2017-05-03T06:59:42.101Z,5264
2017-05-03T07:00:22.605Z,5192
2017-05-03T07:01:03.145Z,5192
2017-05-03T07:01:43.661Z,5112
2017-05-03T07:02:24.180Z,5276
2017-05-03T07:03:04.695Z,5272
2017-05-03T07:03:45.220Z,5592
2017-05-03T07:04:25.741Z,6008
2017-05-03T07:05:06.265Z,6000
2017-05-03T07:05:46.798Z,5844
2017-05-03T07:06:27.329Z,5984
2017-05-03T07:07:07.868Z,5772
2017-05-03T07:07:48.380Z,5512
2017-05-03T07:08:28.907Z,5940
2017-05-03T07:09:09.438Z,5740
2017-05-03T07:09:49.958Z,5164
2017-05-03T07:10:30.468Z,4768
2017-05-03T07:11:11.000Z,5004
2017-05-03T07:11:51.519Z,5088
2017-05-03T07:12:32.046Z,5000
2017-05-03T07:13:12.559Z,4744
2017-05-03T07:13:53.106Z,4652
2017-05-03T07:14:33.618Z,4572
2017-05-03T07:15:14.132Z,4440
2017-05-03T07:15:54.660Z,4320
2017-05-03T07:16:35.177Z,4132
2017-05-03T07:17:15.717Z,3960
2017-05-03T07:17:56.221Z,3788
2017-05-03T07:18:36.742Z,3636
2017-05-03T07:19:17.282Z,3568
2017-05-03T07:19:57.807Z,3496
2017-05-03T07:20:38.309Z,3252
2017-05-03T07:21:18.844Z,3160
2017-05-03T07:21:59.374Z,3100
2017-05-03T07:22:39.896Z,2992
2017-05-03T07:23:20.430Z,2920
2017-05-03T07:24:00.958Z,2864
2017-05-03T07:24:41.473Z,2916
2017-05-03T07:25:21.982Z,3120
2017-05-03T07:26:02.504Z,3280
2017-05-03T07:26:43.035Z,3336
2017-05-03T07:27:23.548Z,3520
2017-05-03T07:28:04.064Z,3780
2017-05-03T07:28:44.583Z,3876
2017-05-03T07:29:25.098Z,4044
2017-05-03T07:30:05.624Z,4288
2017-05-03T07:30:46.143Z,4448
2017-05-03T07:31:26.682Z,4576
2017-05-03T07:32:07.220Z,4404
2017-05-03T07:32:47.711Z,4336
2017-05-03T07:33:28.225Z,4352
2017-05-03T07:34:08.752Z,4296
2017-05-03T07:34:49.280Z,4304
2017-05-03T07:35:29.812Z,4292
2017-05-03T07:36:10.335Z,4108
2017-05-03T07:36:50.840Z,4084
2017-05-03T07:37:31.362Z,3984
2017-05-03T07:38:11.887Z,4044
2017-05-03T07:38:52.400Z,4224
2017-05-03T07:39:32.909Z,4412
2017-05-03T07:40:13.418Z,4436
2017-05-03T07:40:53.922Z,4364
2017-05-03T07:41:34.441Z,4204
2017-05-03T07:42:14.971Z,4176
2017-05-03T07:42:55.503Z,4496
2017-05-03T07:43:36.019Z,4820
2017-05-03T07:44:16.563Z,5240
2017-05-03T07:44:57.099Z,5304
2017-05-03T07:45:37.627Z,5564
2017-05-03T07:46:18.153Z,5980
2017-05-03T07:46:58.688Z,6096
2017-05-03T07:47:39.203Z,5936
2017-05-03T07:48:19.727Z,5780
2017-05-03T07:49:00.257Z,5404
2017-05-03T07:49:40.778Z,5228
2017-05-03T07:50:21.298Z,5576
2017-05-03T07:51:01.822Z,5968
2017-05-03T07:51:42.341Z,6140
2017-05-03T07:52:22.854Z,6080
2017-05-03T07:53:03.399Z,5664
2017-05-03T07:53:43.935Z,5388
2017-05-03T07:54:24.463Z,5212
2017-05-03T07:55:04.985Z,5144
2017-05-03T07:55:45.498Z,5236
2017-05-03T07:56:26.020Z,5856
2017-05-03T07:57:06.520Z,6560
2017-05-03T07:57:47.056Z,7260
2017-05-03T07:58:27.586Z,7784
2017-05-03T07:59:08.092Z,6528
2017-05-03T07:59:48.633Z,5856
2017-05-03T08:00:29.193Z,5904
2017-05-03T08:01:09.707Z,6028
2017-05-03T08:01:50.232Z,5816
2017-05-03T08:02:30.764Z,5632
2017-05-03T08:03:11.312Z,5848
2017-05-03T08:03:51.839Z,6488
2017-05-03T08:04:32.372Z,7300
2017-05-03T08:05:12.895Z,7208
2017-05-03T08:05:53.434Z,5728
2017-05-03T08:06:33.975Z,5908
2017-05-03T08:07:14.543Z,6672
2017-05-03T08:07:55.086Z,7248
2017-05-03T08:08:35.608Z,8040
2017-05-03T08:09:16.111Z,8800
2017-05-03T08:09:56.622Z,10236
2017-05-03T08:10:37.135Z,9668
2017-05-03T08:11:17.680Z,8952
2017-05-03T08:11:58.194Z,7328
2017-05-03T08:12:38.717Z,6688
2017-05-03T08:13:19.243Z,7772
2017-05-03T08:13:59.776Z,7660
2017-05-03T08:14:40.292Z,8300
2017-05-03T08:15:20.822Z,8240
2017-05-03T08:16:01.347Z,8576
2017-05-03T08:16:41.881Z,9020
2017-05-03T08:17:22.401Z,9148
2017-05-03T08:18:02.906Z,9376
2017-05-03T08:18:43.475Z,9632
2017-05-03T08:19:23.949Z,9828
2017-05-03T08:20:04.487Z,10652
2017-05-03T08:20:45.003Z,11868
2017-05-03T08:21:25.569Z,13420
2017-05-03T08:22:06.082Z,21952
2017-05-03T08:22:46.622Z,16068
2017-05-03T08:23:27.163Z,12216
2017-05-03T08:24:07.682Z,8232
2017-05-03T08:24:48.254Z,6588
2017-05-03T08:25:28.741Z,6216
2017-05-03T08:26:09.276Z,7016
2017-05-03T08:26:49.816Z,8316
2017-05-03T08:27:30.350Z,8304
2017-05-03T08:28:10.898Z,8400
2017-05-03T08:28:51.414Z,9820
2017-05-03T08:29:31.947Z,9012
2017-05-03T08:30:12.527Z,10076
2017-05-03T08:30:53.039Z,7588
2017-05-03T08:31:33.567Z,8492
2017-05-03T08:32:14.078Z,11028
2017-05-03T08:32:54.631Z,11676
2017-05-03T08:33:35.150Z,12800
2017-05-03T08:34:15.667Z,13836
2017-05-03T08:34:56.183Z,10860
2017-05-03T08:35:36.713Z,9640
2017-05-03T08:36:17.245Z,8908
2017-05-03T08:36:57.736Z,8428
2017-05-03T08:37:38.258Z,6892
2017-05-03T08:38:18.799Z,5896
2017-05-03T08:38:59.301Z,5208
2017-05-03T08:39:39.829Z,4912
2017-05-03T08:40:20.350Z,4388
2017-05-03T08:41:00.905Z,3908
2017-05-03T08:41:41.385Z,3336
2017-05-03T08:42:21.932Z,3420
2017-05-03T08:43:02.454Z,3684
2017-05-03T08:43:42.988Z,3728
2017-05-03T08:44:23.526Z,3880
2017-05-03T08:45:04.046Z,3968
2017-05-03T08:45:44.572Z,3948
2017-05-03T08:46:25.103Z,4044
2017-05-03T08:47:05.642Z,4256
2017-05-03T08:47:46.173Z,4552
2017-05-03T08:48:26.707Z,4984
2017-05-03T08:49:07.235Z,4996
2017-05-03T08:49:47.760Z,4912
2017-05-03T08:50:28.292Z,4920
2017-05-03T08:51:08.803Z,4936
2017-05-03T08:51:49.399Z,5092
2017-05-03T08:52:29.889Z,5176
2017-05-03T08:53:10.410Z,5520
2017-05-03T08:53:50.935Z,6196
2017-05-03T08:54:31.459Z,6648
2017-05-03T08:55:11.995Z,6912
2017-05-03T08:55:52.518Z,7280
2017-05-03T08:56:33.038Z,6540
2017-05-03T08:57:13.565Z,5828
2017-05-03T08:57:54.111Z,4968
2017-05-03T08:58:34.628Z,4164
2017-05-03T08:59:15.144Z,3892
2017-05-03T08:59:55.674Z,3836
2017-05-03T09:00:36.217Z,3964
2017-05-03T09:01:16.746Z,4104
2017-05-03T09:01:57.254Z,4264
2017-05-03T09:02:37.792Z,3980
2017-05-03T09:03:18.339Z,4012
2017-05-03T09:03:58.862Z,4088
2017-05-03T09:04:39.419Z,4328
2017-05-03T09:05:19.963Z,4748
2017-05-03T09:06:00.480Z,5476
2017-05-03T09:06:41.010Z,6496
2017-05-03T09:07:21.543Z,6624
2017-05-03T09:08:02.063Z,6968
2017-05-03T09:08:42.603Z,6404
2017-05-03T09:09:23.116Z,5492
2017-05-03T09:10:03.647Z,5608
2017-05-03T09:10:44.186Z,5464
2017-05-03T09:11:24.726Z,5132
2017-05-03T09:12:05.250Z,4996
2017-05-03T09:12:45.782Z,5104
2017-05-03T09:13:26.321Z,5616
2017-05-03T09:14:06.842Z,6220
2017-05-03T09:14:47.361Z,7056
2017-05-03T09:15:27.899Z,8504
2017-05-03T09:16:08.407Z,8956
2017-05-03T09:16:48.923Z,9492
2017-05-03T09:17:29.421Z,9524
2017-05-03T09:18:09.963Z,10496
2017-05-03T09:18:50.481Z,11176
2017-05-03T09:19:31.029Z,11288
2017-05-03T09:20:11.553Z,10544
2017-05-03T09:20:52.083Z,9548
2017-05-03T09:21:32.607Z,11484
2017-05-03T09:22:13.129Z,13004
2017-05-03T09:22:53.656Z,27456
2017-05-03T09:23:34.173Z,12344
2017-05-03T09:24:14.709Z,9340
2017-05-03T09:24:55.248Z,6716
2017-05-03T09:25:35.754Z,4668